Time;durP1;ratioP1;P1;durP2;ratioP2;P2;SDS_P1;SDS_P2;PMS_P1;PMS_P2;Temp;Humidity;BMP_temperature;BMP_pressure;BME280_temperature;BME280_humidity;BME280_pressure;Samples;Min_cycle;Max_cycle;Signal;HPM_P1;HPM_P2
2022/09/01 00:02:32;;;;;;;3.57;1.43;;;16.20;1.00;;;;;;5019469;28;20192;-69
2022/09/01 00:05:03;;;;;;;5.33;2.00;;;16.20;1.00;;;;;;5023888;28;20591;-68
2022/09/01 00:07:30;;;;;;;3.77;1.30;;;16.20;1.00;;;;;;5034227;28;20201;-68
2022/09/01 00:09:58;;;;;;;2.40;1.40;;;16.10;1.00;;;;;;5043418;28;20207;-69
2022/09/01 00:12:26;;;;;;;2.00;1.43;;;16.10;1.00;;;;;;5036437;28;20213;-68
2022/09/01 00:14:53;;;;;;;2.67;1.37;;;16.00;1.00;;;;;;5042531;28;20599;-69
2022/09/01 00:17:20;;;;;;;3.20;1.50;;;16.00;1.00;;;;;;5038684;28;20658;-69
2022/09/01 00:19:48;;;;;;;3.63;1.97;;;16.00;1.00;;;;;;5039830;28;20216;-69
2022/09/01 00:22:15;;;;;;;1.90;1.27;;;16.00;1.00;;;;;;5042132;28;20270;-70
2022/09/01 00:24:42;;;;;;;3.23;1.70;;;15.90;1.00;;;;;;5045657;28;20218;-71
2022/09/01 00:27:09;;;;;;;3.60;1.90;;;15.90;1.00;;;;;;5042202;28;20234;-71
2022/09/01 00:29:36;;;;;;;1.70;1.20;;;15.90;1.00;;;;;;5045678;28;20213;-70
2022/09/01 00:32:09;;;;;;;2.90;1.53;;;15.80;1.00;;;;;;5040993;28;20227;-68
2022/09/01 00:34:36;;;;;;;4.10;1.57;;;15.90;1.00;;;;;;5039338;28;20206;-68
2022/09/01 00:37:03;;;;;;;4.30;2.17;;;15.90;1.00;;;;;;5038896;28;20249;-68
2022/09/01 00:39:30;;;;;;;3.33;1.50;;;15.80;1.00;;;;;;5053589;28;20207;-68
2022/09/01 00:41:58;;;;;;;5.60;1.70;;;15.90;1.00;;;;;;5041965;28;20260;-68
2022/09/01 00:44:26;;;;;;;1.70;1.23;;;15.80;1.00;;;;;;5026108;28;20203;-68
2022/09/01 00:46:57;;;;;;;4.50;1.47;;;15.70;1.00;;;;;;5036951;28;20197;-68
2022/09/01 00:49:30;;;;;;;2.43;1.77;;;15.70;1.00;;;;;;5031080;28;20184;-68
2022/09/01 00:52:19;;;;;;;1.63;1.20;;;15.60;4.20;;;;;;5047261;28;20210;-68
2022/09/01 00:54:58;;;;;;;3.00;1.67;;;15.50;12.60;;;;;;5037205;28;20242;-68
2022/09/01 00:57:26;;;;;;;4.43;1.20;;;15.50;18.20;;;;;;5038745;28;20188;-68
2022/09/01 01:00:06;;;;;;;3.63;1.40;;;15.40;23.40;;;;;;5040505;28;20683;-68
2022/09/01 01:02:34;;;;;;;1.67;1.30;;;15.40;29.50;;;;;;5040098;28;20188;-68
2022/09/01 01:05:03;;;;;;;3.27;1.20;;;15.30;37.50;;;;;;5040255;28;20227;-68
2022/09/01 01:07:34;;;;;;;1.83;1.40;;;15.30;44.50;;;;;;5040879;28;20195;-68
2022/09/01 01:10:01;;;;;;;1.70;1.40;;;15.30;49.90;;;;;;5046651;28;20204;-68
2022/09/01 01:12:29;;;;;;;4.37;1.20;;;15.30;53.20;;;;;;5047990;28;20230;-68
2022/09/01 01:14:56;;;;;;;2.93;1.40;;;15.20;57.10;;;;;;5044407;28;20788;-68
2022/09/01 01:17:23;;;;;;;2.77;1.40;;;15.20;62.20;;;;;;5042640;28;20204;-68
2022/09/01 01:23:02;;;;;;;3.43;1.70;;;15.10;80.40;;;;;;5037802;28;20278;-71
2022/09/01 01:25:40;;;;;;;2.53;1.40;;;15.10;90.60;;;;;;5057693;28;20199;-67
2022/09/01 01:28:17;;;;;;;3.77;1.83;;;15.10;99.90;;;;;;5061625;28;20275;-67
2022/09/01 01:30:52;;;;;;;4.03;1.60;;;15.10;95.50;;;;;;5068765;28;20176;-67
2022/09/01 01:33:23;;;;;;;1.83;1.43;;;15.10;99.90;;;;;;5044817;28;20618;-69
2022/09/01 01:35:52;;;;;;;1.97;1.70;;;15.10;99.90;;;;;;5040820;28;20647;-69
2022/09/01 01:38:21;;;;;;;2.20;1.77;;;15.10;99.90;;;;;;5039134;28;20196;-70
2022/09/01 01:40:52;;;;;;;7.63;1.30;;;15.10;99.90;;;;;;5060186;28;20200;-67
2022/09/01 01:43:22;;;;;;;5.70;2.83;;;15.20;96.90;;;;;;5040120;28;20195;-67
2022/09/01 01:45:53;;;;;;;2.40;1.87;;;15.20;99.90;;;;;;5039089;28;20204;-67
2022/09/01 01:48:24;;;;;;;4.40;1.63;;;15.30;99.90;;;;;;5031266;28;20871;-67
2022/09/01 01:50:53;;;;;;;5.93;2.57;;;15.30;93.70;;;;;;5037359;28;20214;-67
2022/09/01 01:53:22;;;;;;;3.33;2.03;;;15.30;99.70;;;;;;5041321;28;20192;-68
2022/09/01 01:55:49;;;;;;;5.03;1.93;;;15.20;93.80;;;;;;5037029;28;20206;-68
2022/09/01 01:58:18;;;;;;;3.10;1.80;;;15.30;97.30;;;;;;5046817;28;20195;-68
2022/09/01 02:00:48;;;;;;;4.17;1.90;;;15.20;99.90;;;;;;5029968;28;20202;-68
2022/09/01 02:03:18;;;;;;;3.20;1.40;;;15.30;99.90;;;;;;5045247;28;20192;-67
2022/09/01 02:05:48;;;;;;;4.23;1.80;;;15.30;91.00;;;;;;5011947;28;20229;-67
2022/09/01 02:08:20;;;;;;;7.27;1.53;;;15.20;98.90;;;;;;5009370;28;20188;-67
2022/09/01 02:10:51;;;;;;;4.50;1.60;;;15.20;83.50;;;;;;5005917;28;20224;-67
2022/09/01 02:13:23;;;;;;;4.40;1.43;;;15.10;90.90;;;;;;5006301;28;20204;-68
2022/09/01 02:15:54;;;;;;;5.77;1.73;;;14.90;99.60;;;;;;5023260;28;20201;-68
2022/09/01 02:18:26;;;;;;;2.83;1.70;;;14.90;99.90;;;;;;5007525;28;20228;-68
2022/09/01 02:20:59;;;;;;;4.53;1.40;;;14.90;99.90;;;;;;5030177;28;20184;-69
2022/09/01 02:23:28;;;;;;;2.00;1.40;;;14.80;99.90;;;;;;5017209;28;20200;-69
2022/09/01 02:26:01;;;;;;;2.67;1.30;;;14.80;99.90;;;;;;5011949;28;20227;-70
2022/09/01 02:28:47;;;;;;;3.30;1.60;;;14.80;99.90;;;;;;5006787;28;20215;-69
2022/09/01 02:31:26;;;;;;;4.07;1.67;;;14.70;99.90;;;;;;5003834;28;20275;-68
2022/09/01 02:33:56;;;;;;;1.90;1.50;;;14.70;99.90;;;;;;5000084;28;20607;-69
2022/09/01 02:36:24;;;;;;;3.53;1.60;;;14.70;99.90;;;;;;4994161;28;20915;-70
2022/09/01 02:38:52;;;;;;;1.90;1.27;;;14.70;99.90;;;;;;5011710;28;20217;-69
2022/09/01 02:41:27;;;;;;;2.80;1.33;;;14.60;99.90;;;;;;5008931;28;20523;-71
2022/09/01 02:43:56;;;;;;;4.47;1.30;;;14.60;99.90;;;;;;5008528;28;20196;-71
2022/09/01 02:46:23;;;;;;;5.57;1.43;;;14.50;99.90;;;;;;5008668;28;20436;-71
2022/09/01 02:48:52;;;;;;;4.07;1.40;;;14.50;99.90;;;;;;4999282;28;20213;-71
2022/09/01 02:51:22;;;;;;;3.47;1.77;;;14.50;99.90;;;;;;5018687;28;20196;-67
2022/09/01 02:53:51;;;;;;;2.10;1.40;;;14.50;99.90;;;;;;5021775;28;20281;-66
2022/09/01 02:56:22;;;;;;;2.97;1.70;;;14.50;99.90;;;;;;4989995;28;20461;-66
2022/09/01 02:58:52;;;;;;;2.23;1.53;;;14.50;99.90;;;;;;5009330;28;20214;-66
2022/09/01 03:01:27;;;;;;;2.07;1.37;;;14.50;99.90;;;;;;4992272;28;20223;-67
2022/09/01 03:04:01;;;;;;;3.03;1.60;;;14.50;99.90;;;;;;5002978;28;20603;-65
2022/09/01 03:06:32;;;;;;;3.20;1.27;;;14.50;99.90;;;;;;5020475;28;20196;-68
2022/09/01 03:09:02;;;;;;;2.63;1.37;;;14.40;99.90;;;;;;5003729;28;20197;-68
2022/09/01 03:11:33;;;;;;;4.47;1.37;;;14.40;99.90;;;;;;5010040;28;20196;-69
2022/09/01 03:14:00;;;;;;;3.07;1.50;;;14.40;99.90;;;;;;5003886;28;20205;-67
2022/09/01 03:16:30;;;;;;;4.43;1.63;;;14.40;99.90;;;;;;5003196;28;20204;-67
2022/09/01 03:19:01;;;;;;;2.43;1.40;;;14.40;99.90;;;;;;5009420;28;20217;-67
2022/09/01 03:21:30;;;;;;;6.40;1.67;;;14.30;99.90;;;;;;5003710;28;20721;-66
2022/09/01 03:24:00;;;;;;;3.47;1.73;;;14.30;99.90;;;;;;5019527;28;20192;-66
2022/09/01 03:26:29;;;;;;;3.87;1.53;;;14.30;99.90;;;;;;5002761;28;20930;-66
2022/09/01 03:28:56;;;;;;;3.70;1.30;;;14.20;99.90;;;;;;4997836;28;20205;-67
2022/09/01 03:31:26;;;;;;;2.17;1.30;;;14.10;99.90;;;;;;5002261;28;20196;-67
2022/09/01 03:33:59;;;;;;;1.50;1.40;;;14.10;99.90;;;;;;5005261;28;20210;-67
2022/09/01 03:36:32;;;;;;;2.93;1.53;;;14.10;99.90;;;;;;5015863;28;20247;-66
2022/09/01 03:39:00;;;;;;;3.67;1.70;;;14.00;99.90;;;;;;5000462;28;20244;-67
2022/09/01 03:41:29;;;;;;;3.70;1.30;;;14.00;99.90;;;;;;5001925;28;20222;-66
2022/09/01 03:43:57;;;;;;;3.80;1.60;;;13.90;99.90;;;;;;5003995;28;20226;-66
2022/09/01 03:46:30;;;;;;;2.20;1.50;;;13.90;99.90;;;;;;5003800;28;20794;-66
2022/09/01 03:49:06;;;;;;;2.37;1.37;;;13.90;99.90;;;;;;5015502;28;20198;-67
2022/09/01 03:51:37;;;;;;;2.47;1.70;;;13.90;99.90;;;;;;5018543;28;20235;-67
2022/09/01 03:54:06;;;;;;;3.07;1.67;;;13.90;99.90;;;;;;5004811;28;20671;-67
2022/09/01 03:56:33;;;;;;;2.30;1.60;;;13.80;99.90;;;;;;5019735;28;20205;-66
2022/09/01 03:59:00;;;;;;;5.13;1.80;;;13.80;99.90;;;;;;5000892;28;20216;-65
2022/09/01 04:01:36;;;;;;;5.00;2.30;;;13.70;99.90;;;;;;5016016;28;20192;-65
2022/09/01 04:04:05;;;;;;;4.53;1.60;;;13.70;99.90;;;;;;4990537;28;20216;-65
2022/09/01 04:06:32;;;;;;;5.30;2.17;;;13.80;99.90;;;;;;5019392;28;20252;-68
2022/09/01 04:09:01;;;;;;;9.20;6.47;;;13.90;99.90;;;;;;5003620;28;20229;-66
2022/09/01 04:11:32;;;;;;;19.33;15.60;;;14.00;99.90;;;;;;5017865;28;20196;-65
2022/09/01 04:14:00;;;;;;;14.17;6.53;;;14.10;99.90;;;;;;4988406;28;20208;-66
2022/09/01 04:19:23;;;;;;;10.17;8.03;;;14.20;99.90;;;;;;5020936;28;20290;-63
2022/09/01 04:22:00;;;;;;;9.40;4.77;;;14.20;99.90;;;;;;5018462;28;20197;-63
2022/09/01 04:24:38;;;;;;;4.53;3.83;;;14.20;99.90;;;;;;5020908;28;20192;-66
2022/09/01 04:27:11;;;;;;;8.03;3.93;;;14.20;99.90;;;;;;4994816;28;20243;-64
2022/09/01 04:29:38;;;;;;;10.80;6.73;;;14.20;99.90;;;;;;4997889;28;20246;-66
2022/09/01 04:32:11;;;;;;;3.60;1.83;;;14.30;99.90;;;;;;5010386;28;20222;-65
2022/09/01 04:34:41;;;;;;;3.67;1.70;;;14.20;99.90;;;;;;5004068;28;20195;-65
2022/09/01 04:37:13;;;;;;;14.57;9.27;;;14.00;99.90;;;;;;5019883;28;20204;-66
2022/09/01 04:39:51;;;;;;;2.67;1.70;;;13.80;99.90;;;;;;4989940;28;20291;-65
2022/09/01 04:42:25;;;;;;;3.53;1.63;;;13.70;99.90;;;;;;5001206;28;20200;-65
2022/09/01 04:44:55;;;;;;;11.47;8.23;;;13.70;99.90;;;;;;4984080;28;20275;-65
2022/09/01 04:47:28;;;;;;;10.40;7.30;;;13.60;99.90;;;;;;4987542;28;20204;-64
2022/09/01 04:50:12;;;;;;;26.07;10.70;;;13.80;99.90;;;;;;5013625;28;20301;-65
2022/09/01 04:52:46;;;;;;;14.37;6.00;;;14.00;99.90;;;;;;4990773;28;20219;-65
2022/09/01 04:55:30;;;;;;;9.10;6.30;;;14.00;99.90;;;;;;5002363;28;20598;-67
2022/09/01 04:57:59;;;;;;;10.90;4.30;;;14.10;99.90;;;;;;5008365;28;20660;-65
2022/09/01 05:00:30;;;;;;;8.10;4.50;;;14.20;99.90;;;;;;5006230;28;20243;-66
2022/09/01 05:03:03;;;;;;;3.77;2.90;;;14.30;99.90;;;;;;5023606;28;20220;-65
2022/09/01 05:06:02;;;;;;;4.13;2.57;;;14.30;99.90;;;;;;5010537;28;20273;-65
2022/09/01 05:08:34;;;;;;;4.83;2.23;;;14.40;99.90;;;;;;5006090;28;20260;-66
2022/09/01 05:11:10;;;;;;;9.97;2.43;;;14.40;99.90;;;;;;5016970;28;20276;-65
2022/09/01 05:13:42;;;;;;;9.37;2.60;;;14.40;99.90;;;;;;5011658;28;20589;-66
2022/09/01 05:16:11;;;;;;;2.93;2.10;;;14.30;99.90;;;;;;5024104;28;20834;-68
2022/09/01 05:18:46;;;;;;;6.53;2.47;;;14.40;99.90;;;;;;5002483;28;20599;-65
2022/09/01 05:21:17;;;;;;;6.33;2.10;;;14.40;99.90;;;;;;5012065;28;20215;-65
2022/09/01 05:23:45;;;;;;;7.43;2.20;;;14.40;99.90;;;;;;5012228;28;20327;-65
2022/09/01 05:26:16;;;;;;;5.67;2.13;;;14.40;99.90;;;;;;5006712;28;20217;-64
2022/09/01 05:28:46;;;;;;;4.33;2.03;;;14.50;99.90;;;;;;5024003;28;20224;-65
2022/09/01 05:31:18;;;;;;;4.20;2.67;;;14.50;99.90;;;;;;5011619;28;20235;-65
2022/09/01 05:33:48;;;;;;;4.13;3.13;;;14.50;99.90;;;;;;5006111;28;20197;-66
2022/09/01 05:36:21;;;;;;;10.50;2.87;;;14.50;99.90;;;;;;4999274;28;20596;-65
2022/09/01 05:38:51;;;;;;;9.20;2.73;;;14.60;99.90;;;;;;5000337;28;20205;-66
2022/09/01 05:41:19;;;;;;;7.90;2.20;;;14.60;99.90;;;;;;5008903;28;20261;-67
2022/09/01 05:43:50;;;;;;;6.77;2.23;;;14.60;99.90;;;;;;5003360;28;20200;-65
2022/09/01 05:46:26;;;;;;;13.87;2.30;;;14.70;99.90;;;;;;5013721;28;20201;-64
2022/09/01 05:48:57;;;;;;;11.47;2.80;;;14.80;99.90;;;;;;5013462;28;20211;-66
2022/09/01 05:51:35;;;;;;;13.23;2.20;;;14.90;99.90;;;;;;5003569;28;20201;-65
2022/09/01 05:54:18;;;;;;;7.57;2.73;;;14.90;99.90;;;;;;5002649;28;20208;-64
2022/09/01 05:56:46;;;;;;;8.43;2.90;;;15.00;99.90;;;;;;5018199;28;20287;-65
2022/09/01 05:59:19;;;;;;;8.47;2.40;;;17.20;66.20;;;;;;4985538;28;20205;-65
2022/09/01 06:01:54;;;;;;;12.80;4.85;;;20.60;1.00;;;;;;5000050;28;20201;-66
2022/09/01 06:04:28;;;;;;;14.23;3.55;;;23.10;1.00;;;;;;5018067;28;20224;-63
2022/09/01 06:07:08;;;;;;;7.97;2.55;;;24.80;1.00;;;;;;5006016;28;20726;-65
2022/09/01 06:09:46;;;;;;;14.57;2.60;;;25.80;1.00;;;;;;5004077;28;20211;-66
2022/09/01 06:12:16;;;;;;;15.48;3.53;;;26.80;1.00;;;;;;4998522;28;20667;-67
2022/09/01 06:14:49;;;;;;;9.27;2.60;;;27.10;1.00;;;;;;5002722;28;20678;-67
2022/09/01 06:17:20;;;;;;;9.77;3.08;;;27.60;1.00;;;;;;4996636;28;20730;-64
2022/09/01 06:19:50;;;;;;;13.60;3.95;;;28.40;1.00;;;;;;5001403;28;20220;-64
2022/09/01 06:22:18;;;;;;;5.97;2.25;;;29.00;1.00;;;;;;5015719;28;20559;-66
2022/09/01 06:24:47;;;;;;;8.93;1.90;;;29.20;1.00;;;;;;5012458;28;20216;-68
2022/09/01 06:27:21;;;;;;;6.28;2.55;;;29.80;1.00;;;;;;4981473;28;20494;-68
2022/09/01 06:29:52;;;;;;;6.00;1.83;;;30.10;1.00;;;;;;5012988;28;20200;-67
2022/09/01 06:32:20;;;;;;;5.85;1.55;;;29.50;1.00;;;;;;5001807;28;20191;-64
2022/09/01 06:34:49;;;;;;;4.50;1.67;;;29.10;1.00;;;;;;5011650;28;20200;-69
2022/09/01 06:37:21;;;;;;;7.15;1.88;;;29.90;1.00;;;;;;5003987;28;20667;-67
2022/09/01 06:39:51;;;;;;;4.20;1.50;;;30.20;1.00;;;;;;4998919;28;20226;-67
2022/09/01 06:42:19;;;;;;;3.20;1.60;;;30.70;1.00;;;;;;5013224;28;20631;-63
2022/09/01 06:44:58;;;;;;;3.40;1.73;;;31.50;1.00;;;;;;4994943;28;20524;-66
2022/09/01 06:47:27;;;;;;;6.53;2.45;;;32.10;1.00;;;;;;4977327;28;20211;-67
2022/09/01 06:49:59;;;;;;;5.75;3.30;;;30.50;1.00;;;;;;5012420;28;20280;-66
2022/09/01 06:52:27;;;;;;;5.38;4.05;;;30.90;1.00;;;;;;4996875;28;20193;-66
2022/09/01 06:55:15;;;;;;;6.75;2.33;;;30.20;1.00;;;;;;4996781;28;20645;-65
2022/09/01 06:58:33;;;;;;;4.97;2.35;;;29.50;1.00;;;;;;4996830;28;20204;-68
2022/09/01 07:47:35;;;;;;;1.58;1.10;;;30.70;1.00;;;;;;5042297;27;1327668;-70
2022/09/01 07:50:20;;;;;;;2.22;1.38;;;31.60;1.00;;;;;;5074020;28;20745;-71
2022/09/01 07:53:07;;;;;;;1.98;1.23;;;31.60;1.00;;;;;;5074634;28;20210;-71
2022/09/01 07:55:40;;;;;;;1.75;1.17;;;30.80;1.00;;;;;;5061812;28;20187;-72
2022/09/01 07:58:10;;;;;;;4.18;1.48;;;32.20;1.00;;;;;;5061574;28;20208;-71
2022/09/01 08:00:45;;;;;;;1.65;1.10;;;32.20;1.00;;;;;;5062530;28;20506;-71
2022/09/01 08:03:17;;;;;;;3.45;1.42;;;32.90;1.00;;;;;;5056660;28;20362;-70
2022/09/01 08:05:46;;;;;;;2.05;1.23;;;32.00;1.00;;;;;;5063725;28;20689;-69
2022/09/01 08:08:13;;;;;;;2.17;1.40;;;32.00;1.00;;;;;;5074828;28;20675;-71
2022/09/01 08:10:55;;;;;;;4.63;1.58;;;31.60;1.00;;;;;;5062276;28;20697;-70
2022/09/01 08:13:34;;;;;;;3.33;1.35;;;31.20;1.00;;;;;;5061165;28;20214;-70
2022/09/01 08:16:08;;;;;;;7.00;1.75;;;31.70;1.00;;;;;;5055029;28;20214;-68
2022/09/01 08:18:46;;;;;;;2.08;1.63;;;33.70;1.00;;;;;;5040533;28;20277;-67
2022/09/01 08:21:26;;;;;;;3.58;1.42;;;34.70;1.00;;;;;;5079422;28;20190;-69
2022/09/01 08:24:01;;;;;;;4.78;1.75;;;33.90;1.00;;;;;;5077170;28;20193;-68
2022/09/01 08:26:31;;;;;;;2.85;1.52;;;33.40;1.00;;;;;;5032853;28;20434;-69
2022/09/01 08:28:59;;;;;;;2.65;1.40;;;32.20;1.00;;;;;;5048174;28;20198;-70
2022/09/01 08:31:34;;;;;;;2.60;1.20;;;33.00;1.00;;;;;;5041393;28;21054;-70
2022/09/01 08:34:04;;;;;;;4.60;1.52;;;32.80;1.00;;;;;;5048143;28;20234;-71
2022/09/01 08:36:32;;;;;;;4.68;1.60;;;33.10;1.00;;;;;;5033178;28;20191;-68
2022/09/01 08:39:00;;;;;;;2.65;1.60;;;33.40;1.00;;;;;;5047798;28;20738;-70
2022/09/01 08:41:48;;;;;;;2.58;1.45;;;35.00;1.00;;;;;;5051563;28;20195;-69
2022/09/01 08:44:37;;;;;;;2.25;1.20;;;34.80;1.00;;;;;;5044969;28;20218;-70
2022/09/01 08:47:08;;;;;;;2.20;1.48;;;36.50;1.00;;;;;;5061103;28;20239;-68
2022/09/01 08:49:45;;;;;;;2.33;1.45;;;36.20;1.00;;;;;;5067847;28;20187;-71
2022/09/01 08:52:26;;;;;;;5.90;1.50;;;35.00;1.00;;;;;;5066684;28;20195;-70
2022/09/01 08:55:04;;;;;;;4.05;1.48;;;34.70;1.00;;;;;;5024810;28;20297;-70
2022/09/01 08:57:33;;;;;;;2.40;1.48;;;34.20;1.00;;;;;;5048336;28;20194;-69
2022/09/01 09:00:29;;;;;;;1.88;1.30;;;34.60;1.00;;;;;;5038788;28;20214;-69
2022/09/01 09:04:02;;;;;;;5.57;1.38;;;34.90;1.00;;;;;;5046020;28;20231;-68
2022/09/01 09:07:09;;;;;;;1.85;1.30;;;35.70;1.00;;;;;;4950159;28;20214;-69
2022/09/01 09:09:52;;;;;;;1.83;1.25;;;34.90;1.00;;;;;;5006226;28;20222;-69
2022/09/01 09:12:54;;;;;;;1.27;1.10;;;36.20;1.00;;;;;;5066683;28;20198;-68
2022/09/01 09:15:25;;;;;;;2.60;1.40;;;36.20;1.00;;;;;;5049054;28;20229;-70
2022/09/01 09:18:04;;;;;;;1.98;1.10;;;37.80;1.00;;;;;;5049726;28;20230;-69
2022/09/01 09:20:52;;;;;;;3.75;1.52;;;34.50;1.00;;;;;;5065747;28;20286;-70
2022/09/01 09:23:30;;;;;;;4.35;1.20;;;34.30;1.00;;;;;;5050625;28;20258;-68
2022/09/01 09:25:57;;;;;;;4.82;1.20;;;35.10;1.00;;;;;;5049997;28;20198;-70
2022/09/01 09:28:24;;;;;;;2.92;1.45;;;36.40;1.00;;;;;;5067296;28;20195;-68
2022/09/01 09:31:28;;;;;;;3.13;1.27;;;36.10;1.00;;;;;;5048271;28;20207;-70
2022/09/01 09:33:56;;;;;;;1.83;1.60;;;37.00;1.00;;;;;;5067342;28;20210;-69
2022/09/01 09:36:33;;;;;;;5.28;1.23;;;33.90;1.00;;;;;;5048784;28;20256;-70
2022/09/01 09:39:08;;;;;;;4.10;1.60;;;33.50;1.00;;;;;;5047578;28;20207;-70
2022/09/01 09:41:37;;;;;;;3.95;1.50;;;33.80;1.00;;;;;;5043147;28;20187;-71
2022/09/01 09:44:28;;;;;;;7.90;1.50;;;35.30;1.00;;;;;;5023869;28;20191;-70
2022/09/01 09:46:56;;;;;;;3.05;1.60;;;35.70;1.00;;;;;;5042949;28;20673;-69
2022/09/01 09:49:25;;;;;;;1.70;1.33;;;34.20;1.00;;;;;;5076375;28;20278;-70
2022/09/01 09:52:17;;;;;;;2.58;1.58;;;35.10;1.00;;;;;;5082814;28;20231;-69
2022/09/01 09:55:02;;;;;;;3.75;1.60;;;32.30;1.00;;;;;;5065539;28;20210;-71
2022/09/01 09:57:37;;;;;;;4.35;1.60;;;34.90;1.00;;;;;;5085856;28;20179;-70
2022/09/01 10:00:20;;;;;;;2.08;1.38;;;35.60;1.00;;;;;;5066410;28;20264;-70
2022/09/01 10:03:03;;;;;;;19.45;2.67;;;35.00;1.00;;;;;;5080462;28;20212;-72
2022/09/01 10:05:43;;;;;;;2.95;1.60;;;32.40;1.00;;;;;;5080667;28;20285;-69
2022/09/01 10:08:25;;;;;;;2.72;1.40;;;31.40;1.00;;;;;;5082700;28;20779;-69
2022/09/01 10:10:54;;;;;;;3.17;1.58;;;33.40;1.00;;;;;;5082204;28;20197;-69
2022/09/01 10:13:27;;;;;;;2.08;1.20;;;33.10;1.00;;;;;;5082234;28;20210;-69
2022/09/01 10:16:03;;;;;;;6.20;1.75;;;31.30;1.00;;;;;;5065210;28;20230;-69
2022/09/01 10:18:43;;;;;;;2.85;1.65;;;31.70;1.00;;;;;;5050259;28;20256;-68
2022/09/01 10:21:14;;;;;;;2.60;1.50;;;31.30;1.00;;;;;;5084464;28;20186;-70
2022/09/01 10:23:42;;;;;;;1.60;1.50;;;30.00;1.00;;;;;;5062979;28;20189;-70
2022/09/01 10:26:28;;;;;;;1.98;1.50;;;28.10;1.00;;;;;;5057502;28;20198;-69
2022/09/01 10:29:28;;;;;;;2.80;1.30;;;29.40;1.00;;;;;;5066500;28;20256;-69
2022/09/01 10:32:07;;;;;;;4.32;1.48;;;30.60;1.00;;;;;;5081996;28;20197;-70
2022/09/01 10:34:55;;;;;;;2.20;1.25;;;30.50;1.00;;;;;;5067623;28;20313;-70
2022/09/01 10:37:26;;;;;;;5.25;1.40;;;32.00;1.00;;;;;;5080224;28;20243;-68
2022/09/01 10:40:15;;;;;;;2.40;1.27;;;31.10;1.00;;;;;;5072497;28;20193;-70
2022/09/01 10:42:54;;;;;;;3.50;1.58;;;31.00;1.00;;;;;;5084275;28;20187;-70
2022/09/01 10:45:42;;;;;;;1.77;1.33;;;32.20;1.00;;;;;;5056589;28;20652;-70
2022/09/01 10:48:31;;;;;;;3.72;1.13;;;31.20;1.00;;;;;;5070558;28;20222;-67
2022/09/01 10:51:17;;;;;;;3.58;1.40;;;30.90;1.00;;;;;;5065221;28;20194;-69
2022/09/01 10:53:58;;;;;;;3.67;1.30;;;30.30;1.00;;;;;;5065238;28;20221;-68
2022/09/01 10:56:45;;;;;;;2.08;1.38;;;27.70;1.00;;;;;;5082704;28;20269;-69
2022/09/01 10:59:28;;;;;;;77.93;9.65;;;28.00;1.00;;;;;;5087724;28;20243;-70
2022/09/01 11:02:15;;;;;;;4.00;1.30;;;29.80;1.00;;;;;;5085472;28;20255;-70
2022/09/01 11:04:59;;;;;;;5.75;1.20;;;32.00;1.00;;;;;;5086764;28;20198;-69
2022/09/01 11:07:32;;;;;;;4.10;1.10;;;31.90;1.00;;;;;;5084804;28;20240;-68
2022/09/01 11:10:19;;;;;;;3.55;1.33;;;30.90;1.00;;;;;;5087344;28;20202;-70
2022/09/01 11:13:42;;;;;;;2.80;1.20;;;31.40;1.00;;;;;;5068917;28;20236;-69
2022/09/01 11:16:33;;;;;;;2.40;1.27;;;30.70;1.00;;;;;;5086531;28;20221;-70
2022/09/01 11:19:22;;;;;;;1.90;1.20;;;30.50;1.00;;;;;;5086219;28;20520;-70
2022/09/01 11:22:14;;;;;;;2.50;1.27;;;31.30;1.00;;;;;;5061906;28;20197;-72
2022/09/01 11:24:45;;;;;;;3.30;0.98;;;31.30;1.00;;;;;;5066488;28;20194;-69
2022/09/01 11:27:48;;;;;;;1.40;1.13;;;30.60;1.00;;;;;;5070944;28;20268;-69
2022/09/01 11:30:21;;;;;;;2.33;1.10;;;30.10;1.00;;;;;;5067915;28;20259;-70
2022/09/01 11:32:58;;;;;;;1.30;1.00;;;29.80;1.00;;;;;;5080800;28;20193;-70
2022/09/01 11:35:27;;;;;;;3.53;1.10;;;28.90;1.00;;;;;;5043655;28;20201;-70
2022/09/01 11:38:00;;;;;;;6.68;1.20;;;28.80;1.00;;;;;;5082981;28;20648;-70
2022/09/01 11:40:31;;;;;;;4.47;1.20;;;28.90;1.00;;;;;;5083403;28;20198;-69
2022/09/01 11:43:19;;;;;;;1.85;1.20;;;29.50;1.00;;;;;;5084179;28;20190;-70
2022/09/01 11:46:19;;;;;;;2.70;1.10;;;28.80;1.00;;;;;;5080423;28;20202;-68
2022/09/01 11:48:48;;;;;;;3.63;1.35;;;27.90;1.00;;;;;;5071229;28;20237;-71
2022/09/01 11:51:20;;;;;;;1.50;1.20;;;28.00;1.00;;;;;;5084140;28;20191;-69
2022/09/01 11:53:49;;;;;;;2.10;1.30;;;28.80;1.00;;;;;;5065107;28;20214;-70
2022/09/01 11:56:21;;;;;;;2.65;1.30;;;29.20;1.00;;;;;;5067441;28;20194;-69
2022/09/01 11:58:48;;;;;;;1.55;1.27;;;29.00;1.00;;;;;;5082008;28;20198;-69
2022/09/01 12:01:29;;;;;;;4.13;1.48;;;28.00;1.00;;;;;;5085887;28;20653;-69
2022/09/01 12:03:57;;;;;;;1.98;1.30;;;27.30;1.00;;;;;;5080071;28;20275;-70
2022/09/01 12:06:28;;;;;;;1.48;1.27;;;27.80;1.00;;;;;;5071273;28;20221;-71
2022/09/01 12:09:02;;;;;;;1.42;1.20;;;28.00;1.00;;;;;;5068890;28;20589;-70
2022/09/01 12:11:36;;;;;;;2.63;1.20;;;27.90;1.00;;;;;;5084059;28;20200;-69
2022/09/01 12:14:08;;;;;;;2.42;1.30;;;28.20;1.00;;;;;;5051498;28;20257;-70
2022/09/01 12:16:40;;;;;;;4.78;1.38;;;28.20;1.00;;;;;;5052046;28;20244;-69
2022/09/01 12:19:22;;;;;;;1.30;1.02;;;28.70;1.00;;;;;;5061922;28;20191;-68
2022/09/01 12:22:17;;;;;;;6.38;1.23;;;29.10;1.00;;;;;;5069416;28;20205;-71
2022/09/01 12:24:50;;;;;;;1.10;1.00;;;28.50;1.00;;;;;;5068750;28;20558;-68
2022/09/01 12:27:19;;;;;;;2.90;1.10;;;27.90;1.00;;;;;;5083384;28;20284;-71
2022/09/01 12:29:46;;;;;;;2.83;1.48;;;27.70;1.00;;;;;;5047416;28;20297;-69
2022/09/01 12:32:15;;;;;;;2.13;1.20;;;27.30;1.00;;;;;;5083590;28;20202;-70
2022/09/01 12:34:58;;;;;;;1.13;0.95;;;27.50;1.00;;;;;;5079478;28;20214;-69
2022/09/01 12:37:26;;;;;;;4.05;1.40;;;27.10;1.00;;;;;;5063540;28;20244;-71
2022/09/01 12:39:56;;;;;;;2.30;1.23;;;27.20;1.00;;;;;;5063624;28;20661;-69
2022/09/01 12:42:26;;;;;;;2.20;1.30;;;27.50;1.00;;;;;;5063645;28;20204;-70
2022/09/01 12:45:01;;;;;;;3.55;1.30;;;27.80;1.00;;;;;;5087949;28;20198;-69
2022/09/01 12:47:46;;;;;;;2.97;1.27;;;27.80;1.00;;;;;;5080683;28;20241;-69
2022/09/01 12:50:13;;;;;;;2.60;1.25;;;26.80;1.00;;;;;;5070682;28;20706;-68
2022/09/01 12:52:47;;;;;;;4.13;1.27;;;26.50;1.00;;;;;;5071341;28;20719;-68
2022/09/01 12:55:21;;;;;;;2.75;1.17;;;26.40;1.00;;;;;;5069437;28;20226;-69
2022/09/01 12:58:09;;;;;;;1.45;1.20;;;26.40;1.00;;;;;;5072571;28;20233;-69
2022/09/01 13:00:54;;;;;;;3.33;1.20;;;26.30;1.00;;;;;;5089171;28;20706;-70
2022/09/01 13:03:22;;;;;;;1.63;1.25;;;26.50;1.00;;;;;;5087879;28;20316;-70
2022/09/01 13:05:54;;;;;;;1.30;1.10;;;25.80;1.00;;;;;;5089740;28;20209;-69
2022/09/01 13:08:28;;;;;;;1.75;1.20;;;25.70;1.00;;;;;;5065555;28;20222;-70
2022/09/01 13:11:00;;;;;;;3.60;1.10;;;26.00;1.00;;;;;;5065911;28;20190;-70
2022/09/01 13:13:28;;;;;;;3.40;1.10;;;25.70;1.00;;;;;;5089187;28;20214;-67
2022/09/01 13:16:01;;;;;;;5.38;2.05;;;25.30;1.00;;;;;;5071820;28;20301;-70
2022/09/01 13:18:28;;;;;;;3.60;1.52;;;25.80;1.00;;;;;;5086799;28;20195;-69
2022/09/01 13:20:57;;;;;;;1.50;1.20;;;25.40;1.00;;;;;;5086979;28;20269;-70
2022/09/01 13:23:24;;;;;;;2.00;1.20;;;25.50;1.00;;;;;;5072389;28;20285;-67
2022/09/01 13:25:52;;;;;;;2.75;1.30;;;24.90;1.00;;;;;;5088752;28;20230;-71
2022/09/01 13:28:19;;;;;;;1.45;1.10;;;25.50;1.00;;;;;;5086422;28;20215;-70
2022/09/01 13:30:53;;;;;;;1.73;1.38;;;25.40;1.00;;;;;;5070219;28;20195;-70
2022/09/01 13:33:40;;;;;;;3.90;1.40;;;25.20;1.00;;;;;;5087001;28;20217;-70
2022/09/01 13:36:27;;;;;;;2.30;1.17;;;25.60;1.00;;;;;;5074063;28;20210;-69
2022/09/01 13:39:14;;;;;;;1.85;1.20;;;25.40;1.00;;;;;;5084702;28;20178;-68
2022/09/01 13:41:42;;;;;;;4.20;1.00;;;25.50;1.00;;;;;;5071046;28;20249;-69
2022/09/01 13:44:09;;;;;;;1.20;1.10;;;25.50;1.00;;;;;;5069032;28;20229;-70
2022/09/01 13:46:37;;;;;;;3.00;1.30;;;25.70;1.00;;;;;;5085591;28;20586;-69
2022/09/01 13:49:24;;;;;;;1.77;1.10;;;25.70;1.00;;;;;;5057036;28;20683;-68
2022/09/01 13:52:11;;;;;;;1.20;0.90;;;25.50;1.00;;;;;;5048859;28;20253;-68
2022/09/01 13:54:39;;;;;;;1.38;1.15;;;25.50;1.00;;;;;;5065773;28;21002;-68
2022/09/01 13:57:06;;;;;;;2.60;1.15;;;25.30;1.00;;;;;;5024092;28;20207;-69
2022/09/01 13:59:33;;;;;;;3.28;1.30;;;24.90;1.00;;;;;;5046990;28;20554;-69
2022/09/01 14:02:00;;;;;;;4.97;1.20;;;24.90;1.00;;;;;;5040313;28;20222;-69
2022/09/01 14:04:28;;;;;;;1.15;1.00;;;24.70;1.00;;;;;;5036753;28;20205;-69
2022/09/01 14:06:55;;;;;;;1.80;1.30;;;24.60;1.00;;;;;;5050351;28;20191;-69
2022/09/01 14:09:22;;;;;;;1.33;0.98;;;24.70;1.00;;;;;;5036231;28;20701;-69
2022/09/01 14:11:52;;;;;;;3.40;1.13;;;24.70;1.00;;;;;;5050921;28;20222;-67
2022/09/01 14:14:20;;;;;;;1.20;1.10;;;24.90;1.00;;;;;;5057202;28;20763;-67
2022/09/01 14:16:48;;;;;;;3.08;1.20;;;25.00;1.00;;;;;;5059056;28;20716;-68
2022/09/01 14:19:15;;;;;;;2.13;1.52;;;24.80;1.00;;;;;;5061105;28;20211;-67
2022/09/01 14:21:43;;;;;;;2.78;1.20;;;24.60;1.00;;;;;;5044400;28;20213;-67
2022/09/01 14:24:11;;;;;;;4.35;1.33;;;24.70;1.00;;;;;;5042253;28;20199;-68